sensor_id;sensor_type;location;lat;lon;timestamp;temperature;humidity
2653;DHT22;1336;48.692;9.144;2023-05-01T05:00:38;13.00;97.20
2653;DHT22;1336;48.692;9.144;2023-05-01T05:01:30;13.10;97.20
2653;DHT22;1336;48.692;9.144;2023-05-01T05:02:21;13.10;97.20
2653;DHT22;1336;48.692;9.144;2023-05-01T05:03:13;13.10;97.20
2653;DHT22;1336;48.692;9.144;2023-05-01T05:04:05;13.10;97.20
2653;DHT22;1336;48.692;9.144;2023-05-01T05:04:57;13.10;97.20
2653;DHT22;1336;48.692;9.144;2023-05-01T05:05:48;13.10;97.20
2653;DHT22;1336;48.692;9.144;2023-05-01T05:06:40;13.10;97.20
2653;DHT22;1336;48.692;9.144;2023-05-01T05:07:31;13.10;97.20
2653;DHT22;1336;48.692;9.144;2023-05-01T05:08:22;13.10;97.20
2653;DHT22;1336;48.692;9.144;2023-05-01T05:09:13;13.10;97.20
2653;DHT22;1336;48.692;9.144;2023-05-01T05:10:05;13.10;97.20
2653;DHT22;1336;48.692;9.144;2023-05-01T05:10:57;13.10;97.20
2653;DHT22;1336;48.692;9.144;2023-05-01T05:11:49;13.10;97.20
2653;DHT22;1336;48.692;9.144;2023-05-01T05:12:40;13.10;97.20
2653;DHT22;1336;48.692;9.144;2023-05-01T05:13:32;13.20;97.20
2653;DHT22;1336;48.692;9.144;2023-05-01T05:14:22;13.20;97.20
2653;DHT22;1336;48.692;9.144;2023-05-01T05:15:14;13.20;97.20
2653;DHT22;1336;48.692;9.144;2023-05-01T05:16:07;13.10;97.20
2653;DHT22;1336;48.692;9.144;2023-05-01T05:16:59;13.10;97.20
2653;DHT22;1336;48.692;9.144;2023-05-01T05:17:49;13.20;97.20
2653;DHT22;1336;48.692;9.144;2023-05-01T05:18:41;13.10;97.20
2653;DHT22;1336;48.692;9.144;2023-05-01T05:19:32;13.10;97.20
2653;DHT22;1336;48.692;9.144;2023-05-01T05:20:23;13.10;97.20
2653;DHT22;1336;48.692;9.144;2023-05-01T05:21:14;13.10;97.20
2653;DHT22;1336;48.692;9.144;2023-05-01T05:22:06;13.10;97.20
2653;DHT22;1336;48.692;9.144;2023-05-01T05:22:57;13.10;97.20
2653;DHT22;1336;48.692;9.144;2023-05-01T05:23:48;13.10;97.20
2653;DHT22;1336;48.692;9.144;2023-05-01T05:24:40;13.10;97.20
2653;DHT22;1336;48.692;9.144;2023-05-01T05:25:31;13.10;97.20
2653;DHT22;1336;48.692;9.144;2023-05-01T05:26:23;13.10;97.20
2653;DHT22;1336;48.692;9.144;2023-05-01T05:27:15;13.10;97.20
2653;DHT22;1336;48.692;9.144;2023-05-01T05:28:06;13.10;97.20
2653;DHT22;1336;48.692;9.144;2023-05-01T05:28:58;13.10;97.20
2653;DHT22;1336;48.692;9.144;2023-05-01T05:29:49;13.10;97.20
2653;DHT22;1336;48.692;9.144;2023-05-01T05:30:41;13.10;97.20
2653;DHT22;1336;48.692;9.144;2023-05-01T05:31:33;13.10;97.20
2653;DHT22;1336;48.692;9.144;2023-05-01T05:32:24;13.10;97.20
2653;DHT22;1336;48.692;9.144;2023-05-01T05:33:15;13.10;97.20
2653;DHT22;1336;48.692;9.144;2023-05-01T05:34:07;13.10;97.20
2653;DHT22;1336;48.692;9.144;2023-05-01T05:34:58;13.10;97.20
2653;DHT22;1336;48.692;9.144;2023-05-01T05:35:50;13.10;97.20
2653;DHT22;1336;48.692;9.144;2023-05-01T05:36:40;13.10;97.20
2653;DHT22;1336;48.692;9.144;2023-05-01T05:37:32;13.10;97.20
2653;DHT22;1336;48.692;9.144;2023-05-01T05:38:23;13.10;97.20
2653;DHT22;1336;48.692;9.144;2023-05-01T05:39:15;13.10;97.20
2653;DHT22;1336;48.692;9.144;2023-05-01T05:40:07;13.10;97.20
2653;DHT22;1336;48.692;9.144;2023-05-01T05:40:59;13.10;97.20
2653;DHT22;1336;48.692;9.144;2023-05-01T05:41:51;13.10;97.20
2653;DHT22;1336;48.692;9.144;2023-05-01T05:42:43;13.10;97.20
2653;DHT22;1336;48.692;9.144;2023-05-01T05:43:34;13.10;97.20
2653;DHT22;1336;48.692;9.144;2023-05-01T05:44:25;13.10;97.20
2653;DHT22;1336;48.692;9.144;2023-05-01T05:45:16;13.20;97.20
2653;DHT22;1336;48.692;9.144;2023-05-01T05:46:08;13.20;97.20
2653;DHT22;1336;48.692;9.144;2023-05-01T05:47:00;13.10;97.20
2653;DHT22;1336;48.692;9.144;2023-05-01T05:47:51;13.10;97.20
2653;DHT22;1336;48.692;9.144;2023-05-01T05:48:42;13.10;97.20
2653;DHT22;1336;48.692;9.144;2023-05-01T05:49:34;13.10;97.20
2653;DHT22;1336;48.692;9.144;2023-05-01T05:50:24;13.10;97.20
2653;DHT22;1336;48.692;9.144;2023-05-01T05:51:16;13.10;97.20
2653;DHT22;1336;48.692;9.144;2023-05-01T05:52:07;13.10;97.20
2653;DHT22;1336;48.692;9.144;2023-05-01T05:52:58;13.10;97.20
2653;DHT22;1336;48.692;9.144;2023-05-01T05:53:49;13.10;97.20
2653;DHT22;1336;48.692;9.144;2023-05-01T05:54:41;13.20;97.20
2653;DHT22;1336;48.692;9.144;2023-05-01T05:55:32;13.20;97.20
2653;DHT22;1336;48.692;9.144;2023-05-01T05:56:23;13.20;97.20
2653;DHT22;1336;48.692;9.144;2023-05-01T05:57:14;13.20;97.20
2653;DHT22;1336;48.692;9.144;2023-05-01T05:58:06;13.20;97.20
2653;DHT22;1336;48.692;9.144;2023-05-01T05:58:56;13.20;97.20
2653;DHT22;1336;48.692;9.144;2023-05-01T05:59:52;13.20;97.20
2653;DHT22;1336;48.692;9.144;2023-05-01T06:00:43;13.20;97.20
2653;DHT22;1336;48.692;9.144;2023-05-01T06:01:35;13.20;97.20
2653;DHT22;1336;48.692;9.144;2023-05-01T06:02:28;13.20;97.20
2653;DHT22;1336;48.692;9.144;2023-05-01T06:03:20;13.20;97.20
2653;DHT22;1336;48.692;9.144;2023-05-01T06:04:10;13.20;97.20
2653;DHT22;1336;48.692;9.144;2023-05-01T06:05:04;13.20;97.20
2653;DHT22;1336;48.692;9.144;2023-05-01T06:05:55;13.20;97.20
2653;DHT22;1336;48.692;9.144;2023-05-01T06:06:47;13.20;97.20
2653;DHT22;1336;48.692;9.144;2023-05-01T06:07:38;13.20;97.20
2653;DHT22;1336;48.692;9.144;2023-05-01T06:08:30;13.20;97.20
2653;DHT22;1336;48.692;9.144;2023-05-01T06:09:21;13.20;97.20
2653;DHT22;1336;48.692;9.144;2023-05-01T06:10:12;13.30;97.20
2653;DHT22;1336;48.692;9.144;2023-05-01T06:11:03;13.30;97.20
2653;DHT22;1336;48.692;9.144;2023-05-01T06:11:56;13.30;97.20
2653;DHT22;1336;48.692;9.144;2023-05-01T06:12:47;13.30;97.20
2653;DHT22;1336;48.692;9.144;2023-05-01T06:13:40;13.30;97.20
2653;DHT22;1336;48.692;9.144;2023-05-01T06:14:30;13.40;97.20
2653;DHT22;1336;48.692;9.144;2023-05-01T06:15:22;13.40;97.20
2653;DHT22;1336;48.692;9.144;2023-05-01T06:16:14;13.40;97.20
2653;DHT22;1336;48.692;9.144;2023-05-01T06:17:06;13.50;97.20
2653;DHT22;1336;48.692;9.144;2023-05-01T06:17:59;13.50;97.20
2653;DHT22;1336;48.692;9.144;2023-05-01T06:18:51;13.50;97.20
2653;DHT22;1336;48.692;9.144;2023-05-01T06:19:42;13.50;97.20
2653;DHT22;1336;48.692;9.144;2023-05-01T06:20:33;13.50;97.20
2653;DHT22;1336;48.692;9.144;2023-05-01T06:21:24;13.60;97.20
2653;DHT22;1336;48.692;9.144;2023-05-01T06:22:16;13.60;97.20
2653;DHT22;1336;48.692;9.144;2023-05-01T06:23:06;13.60;97.20
2653;DHT22;1336;48.692;9.144;2023-05-01T06:23:59;13.60;97.20
2653;DHT22;1336;48.692;9.144;2023-05-01T06:24:49;13.60;97.20
2653;DHT22;1336;48.692;9.144;2023-05-01T06:25:41;13.60;97.20
2653;DHT22;1336;48.692;9.144;2023-05-01T06:26:32;13.60;97.20
2653;DHT22;1336;48.692;9.144;2023-05-01T06:27:23;13.60;97.20
2653;DHT22;1336;48.692;9.144;2023-05-01T06:28:14;13.60;97.20
2653;DHT22;1336;48.692;9.144;2023-05-01T06:29:06;13.60;97.20
2653;DHT22;1336;48.692;9.144;2023-05-01T06:29:57;13.60;97.20
2653;DHT22;1336;48.692;9.144;2023-05-01T06:30:48;13.60;97.20
2653;DHT22;1336;48.692;9.144;2023-05-01T06:31:39;13.60;97.20
2653;DHT22;1336;48.692;9.144;2023-05-01T06:32:31;13.50;97.20
2653;DHT22;1336;48.692;9.144;2023-05-01T06:33:23;13.50;97.20
2653;DHT22;1336;48.692;9.144;2023-05-01T06:34:15;13.50;97.20
2653;DHT22;1336;48.692;9.144;2023-05-01T06:35:06;13.50;97.20
2653;DHT22;1336;48.692;9.144;2023-05-01T06:35:58;13.50;97.20
2653;DHT22;1336;48.692;9.144;2023-05-01T06:36:49;13.50;97.20
2653;DHT22;1336;48.692;9.144;2023-05-01T06:37:41;13.60;97.20
2653;DHT22;1336;48.692;9.144;2023-05-01T06:38:32;13.60;97.20
2653;DHT22;1336;48.692;9.144;2023-05-01T06:39:23;13.60;97.20
2653;DHT22;1336;48.692;9.144;2023-05-01T06:40:14;13.60;97.20
2653;DHT22;1336;48.692;9.144;2023-05-01T06:41:06;13.70;97.20
2653;DHT22;1336;48.692;9.144;2023-05-01T06:41:56;13.70;97.20
2653;DHT22;1336;48.692;9.144;2023-05-01T06:42:48;13.70;97.20
2653;DHT22;1336;48.692;9.144;2023-05-01T06:43:39;13.70;97.20
2653;DHT22;1336;48.692;9.144;2023-05-01T06:44:30;13.70;97.20
2653;DHT22;1336;48.692;9.144;2023-05-01T06:45:21;13.80;97.20
2653;DHT22;1336;48.692;9.144;2023-05-01T06:46:13;13.80;97.20
2653;DHT22;1336;48.692;9.144;2023-05-01T06:47:04;13.80;97.20
2653;DHT22;1336;48.692;9.144;2023-05-01T06:47:55;13.90;97.20
2653;DHT22;1336;48.692;9.144;2023-05-01T06:48:48;13.90;97.20
2653;DHT22;1336;48.692;9.144;2023-05-01T06:49:39;13.90;97.20
2653;DHT22;1336;48.692;9.144;2023-05-01T06:50:30;14.00;97.20
2653;DHT22;1336;48.692;9.144;2023-05-01T06:51:22;14.00;97.20
2653;DHT22;1336;48.692;9.144;2023-05-01T06:52:13;14.00;97.20
2653;DHT22;1336;48.692;9.144;2023-05-01T06:53:04;14.00;97.20
2653;DHT22;1336;48.692;9.144;2023-05-01T06:53:55;14.00;97.20
2653;DHT22;1336;48.692;9.144;2023-05-01T06:54:47;14.00;97.20
2653;DHT22;1336;48.692;9.144;2023-05-01T06:55:37;14.10;97.20
2653;DHT22;1336;48.692;9.144;2023-05-01T06:56:29;14.00;97.20
2653;DHT22;1336;48.692;9.144;2023-05-01T06:57:21;14.10;97.20
2653;DHT22;1336;48.692;9.144;2023-05-01T06:58:13;14.10;97.20
2653;DHT22;1336;48.692;9.144;2023-05-01T06:59:04;14.10;97.20
2653;DHT22;1336;48.692;9.144;2023-05-01T06:59:56;14.10;97.20
2653;DHT22;1336;48.692;9.144;2023-05-01T07:00:46;14.10;97.20
2653;DHT22;1336;48.692;9.144;2023-05-01T07:01:38;14.20;97.20
2653;DHT22;1336;48.692;9.144;2023-05-01T07:02:29;14.20;97.20
2653;DHT22;1336;48.692;9.144;2023-05-01T07:03:20;14.20;97.20
2653;DHT22;1336;48.692;9.144;2023-05-01T07:04:13;14.20;97.20
2653;DHT22;1336;48.692;9.144;2023-05-01T07:05:05;14.20;97.20
2653;DHT22;1336;48.692;9.144;2023-05-01T07:05:56;14.20;97.20
2653;DHT22;1336;48.692;9.144;2023-05-01T07:06:48;14.20;97.20
2653;DHT22;1336;48.692;9.144;2023-05-01T07:07:39;14.20;97.20
2653;DHT22;1336;48.692;9.144;2023-05-01T07:08:31;14.20;97.20
2653;DHT22;1336;48.692;9.144;2023-05-01T07:09:21;14.20;97.20
2653;DHT22;1336;48.692;9.144;2023-05-01T07:10:13;14.20;97.20
2653;DHT22;1336;48.692;9.144;2023-05-01T07:11:04;14.20;97.20
2653;DHT22;1336;48.692;9.144;2023-05-01T07:11:57;14.20;97.20
2653;DHT22;1336;48.692;9.144;2023-05-01T07:12:48;14.30;97.20
2653;DHT22;1336;48.692;9.144;2023-05-01T07:13:40;14.30;97.20
2653;DHT22;1336;48.692;9.144;2023-05-01T07:14:31;14.30;97.20
2653;DHT22;1336;48.692;9.144;2023-05-01T07:15:23;14.30;97.20
2653;DHT22;1336;48.692;9.144;2023-05-01T07:16:14;14.30;97.20
2653;DHT22;1336;48.692;9.144;2023-05-01T07:17:06;14.40;97.20
2653;DHT22;1336;48.692;9.144;2023-05-01T07:17:58;14.40;97.20
2653;DHT22;1336;48.692;9.144;2023-05-01T07:18:52;14.50;97.20
2653;DHT22;1336;48.692;9.144;2023-05-01T07:19:44;14.50;97.20
2653;DHT22;1336;48.692;9.144;2023-05-01T07:20:35;14.50;97.20
2653;DHT22;1336;48.692;9.144;2023-05-01T07:21:26;14.50;97.20
2653;DHT22;1336;48.692;9.144;2023-05-01T07:22:18;14.60;97.20
2653;DHT22;1336;48.692;9.144;2023-05-01T07:23:09;14.60;97.20
2653;DHT22;1336;48.692;9.144;2023-05-01T07:24:00;14.60;97.20
2653;DHT22;1336;48.692;9.144;2023-05-01T07:24:51;14.60;97.20
2653;DHT22;1336;48.692;9.144;2023-05-01T07:25:43;14.70;97.20
2653;DHT22;1336;48.692;9.144;2023-05-01T07:26:34;14.70;97.20
2653;DHT22;1336;48.692;9.144;2023-05-01T07:27:27;14.70;97.20
2653;DHT22;1336;48.692;9.144;2023-05-01T07:28:19;14.70;97.20
2653;DHT22;1336;48.692;9.144;2023-05-01T07:29:12;14.70;97.20
2653;DHT22;1336;48.692;9.144;2023-05-01T07:30:03;14.60;97.20
2653;DHT22;1336;48.692;9.144;2023-05-01T07:30:55;14.60;97.20
2653;DHT22;1336;48.692;9.144;2023-05-01T07:31:46;14.60;97.20
2653;DHT22;1336;48.692;9.144;2023-05-01T07:32:38;14.70;97.20
2653;DHT22;1336;48.692;9.144;2023-05-01T07:33:30;14.70;97.20
2653;DHT22;1336;48.692;9.144;2023-05-01T07:34:21;14.70;97.20
2653;DHT22;1336;48.692;9.144;2023-05-01T07:35:14;14.70;97.20
2653;DHT22;1336;48.692;9.144;2023-05-01T07:36:05;14.80;97.20
2653;DHT22;1336;48.692;9.144;2023-05-01T07:36:57;14.80;97.20
2653;DHT22;1336;48.692;9.144;2023-05-01T07:37:49;14.80;97.20
2653;DHT22;1336;48.692;9.144;2023-05-01T07:38:41;14.90;97.20
2653;DHT22;1336;48.692;9.144;2023-05-01T07:39:32;14.90;97.20
2653;DHT22;1336;48.692;9.144;2023-05-01T07:40:23;14.90;97.20
2653;DHT22;1336;48.692;9.144;2023-05-01T07:41:15;14.90;97.20
2653;DHT22;1336;48.692;9.144;2023-05-01T07:42:05;15.00;97.20
2653;DHT22;1336;48.692;9.144;2023-05-01T07:42:57;15.00;97.20
2653;DHT22;1336;48.692;9.144;2023-05-01T07:43:48;14.90;97.20
2653;DHT22;1336;48.692;9.144;2023-05-01T07:44:39;14.90;97.20
2653;DHT22;1336;48.692;9.144;2023-05-01T07:45:30;14.90;97.20
2653;DHT22;1336;48.692;9.144;2023-05-01T07:46:22;14.90;97.20
2653;DHT22;1336;48.692;9.144;2023-05-01T07:47:13;14.90;97.20
2653;DHT22;1336;48.692;9.144;2023-05-01T07:48:04;14.80;97.20
2653;DHT22;1336;48.692;9.144;2023-05-01T07:48:55;14.80;97.20
2653;DHT22;1336;48.692;9.144;2023-05-01T07:49:47;14.80;97.20
2653;DHT22;1336;48.692;9.144;2023-05-01T07:50:39;14.80;97.20
2653;DHT22;1336;48.692;9.144;2023-05-01T07:51:31;14.80;97.20
2653;DHT22;1336;48.692;9.144;2023-05-01T07:52:21;14.80;97.20
2653;DHT22;1336;48.692;9.144;2023-05-01T07:53:13;14.80;97.20
2653;DHT22;1336;48.692;9.144;2023-05-01T07:54:04;14.70;97.20
2653;DHT22;1336;48.692;9.144;2023-05-01T07:54:56;14.70;97.20
2653;DHT22;1336;48.692;9.144;2023-05-01T07:55:46;14.70;97.20
2653;DHT22;1336;48.692;9.144;2023-05-01T07:56:39;14.70;97.20
2653;DHT22;1336;48.692;9.144;2023-05-01T07:57:29;14.70;97.20
2653;DHT22;1336;48.692;9.144;2023-05-01T07:58:22;14.80;97.20
2653;DHT22;1336;48.692;9.144;2023-05-01T07:59:14;14.80;97.20
2653;DHT22;1336;48.692;9.144;2023-05-01T08:00:07;14.80;97.20
2653;DHT22;1336;48.692;9.144;2023-05-01T08:00:59;14.80;97.20
2653;DHT22;1336;48.692;9.144;2023-05-01T08:01:50;14.90;97.20
2653;DHT22;1336;48.692;9.144;2023-05-01T08:02:41;14.90;97.20
2653;DHT22;1336;48.692;9.144;2023-05-01T08:03:33;14.90;97.20
2653;DHT22;1336;48.692;9.144;2023-05-01T08:04:24;14.90;97.20
2653;DHT22;1336;48.692;9.144;2023-05-01T08:05:17;15.00;97.20
2653;DHT22;1336;48.692;9.144;2023-05-01T08:06:09;15.00;97.20
2653;DHT22;1336;48.692;9.144;2023-05-01T08:07:01;15.00;97.20
2653;DHT22;1336;48.692;9.144;2023-05-01T08:07:52;15.10;97.20
2653;DHT22;1336;48.692;9.144;2023-05-01T08:08:43;15.10;97.20
2653;DHT22;1336;48.692;9.144;2023-05-01T08:09:34;15.10;97.20
2653;DHT22;1336;48.692;9.144;2023-05-01T08:10:26;15.20;97.20
2653;DHT22;1336;48.692;9.144;2023-05-01T08:11:18;15.20;97.20
2653;DHT22;1336;48.692;9.144;2023-05-01T08:12:09;15.30;97.20
2653;DHT22;1336;48.692;9.144;2023-05-01T08:13:00;15.40;97.20
2653;DHT22;1336;48.692;9.144;2023-05-01T08:13:52;15.40;97.20
2653;DHT22;1336;48.692;9.144;2023-05-01T08:14:43;15.40;97.20
2653;DHT22;1336;48.692;9.144;2023-05-01T08:15:34;15.50;97.20
2653;DHT22;1336;48.692;9.144;2023-05-01T08:16:28;15.50;97.20
2653;DHT22;1336;48.692;9.144;2023-05-01T08:17:19;15.60;97.20
2653;DHT22;1336;48.692;9.144;2023-05-01T08:18:10;15.70;97.20
2653;DHT22;1336;48.692;9.144;2023-05-01T08:19:01;15.80;97.20
2653;DHT22;1336;48.692;9.144;2023-05-01T08:19:53;15.90;97.20
2653;DHT22;1336;48.692;9.144;2023-05-01T08:20:46;16.00;97.20
2653;DHT22;1336;48.692;9.144;2023-05-01T08:21:39;16.10;97.20
2653;DHT22;1336;48.692;9.144;2023-05-01T08:22:30;16.10;97.20
2653;DHT22;1336;48.692;9.144;2023-05-01T08:23:22;16.20;97.20
2653;DHT22;1336;48.692;9.144;2023-05-01T08:24:14;16.30;97.20
2653;DHT22;1336;48.692;9.144;2023-05-01T08:25:06;16.40;97.20
2653;DHT22;1336;48.692;9.144;2023-05-01T08:25:57;16.40;97.20
2653;DHT22;1336;48.692;9.144;2023-05-01T08:26:49;16.50;97.20
2653;DHT22;1336;48.692;9.144;2023-05-01T08:27:40;16.50;97.20
2653;DHT22;1336;48.692;9.144;2023-05-01T08:28:34;16.60;97.20
2653;DHT22;1336;48.692;9.144;2023-05-01T08:29:24;16.60;97.20
2653;DHT22;1336;48.692;9.144;2023-05-01T08:30:16;16.60;97.20
2653;DHT22;1336;48.692;9.144;2023-05-01T08:31:07;16.70;97.20
2653;DHT22;1336;48.692;9.144;2023-05-01T08:31:58;16.70;97.20
2653;DHT22;1336;48.692;9.144;2023-05-01T08:32:49;16.70;97.20
2653;DHT22;1336;48.692;9.144;2023-05-01T08:33:41;16.80;97.20
2653;DHT22;1336;48.692;9.144;2023-05-01T08:34:33;16.80;97.20
2653;DHT22;1336;48.692;9.144;2023-05-01T08:35:25;16.80;97.20
2653;DHT22;1336;48.692;9.144;2023-05-01T08:36:16;16.80;97.20
2653;DHT22;1336;48.692;9.144;2023-05-01T08:37:09;16.80;97.20
2653;DHT22;1336;48.692;9.144;2023-05-01T08:38:00;16.90;97.20
2653;DHT22;1336;48.692;9.144;2023-05-01T08:38:52;16.90;97.20
2653;DHT22;1336;48.692;9.144;2023-05-01T08:39:43;17.00;97.20
2653;DHT22;1336;48.692;9.144;2023-05-01T08:40:36;17.10;97.20
2653;DHT22;1336;48.692;9.144;2023-05-01T08:41:27;17.10;97.20
2653;DHT22;1336;48.692;9.144;2023-05-01T08:42:20;17.20;97.20
2653;DHT22;1336;48.692;9.144;2023-05-01T08:43:11;17.30;97.20
2653;DHT22;1336;48.692;9.144;2023-05-01T08:44:05;17.30;97.20
2653;DHT22;1336;48.692;9.144;2023-05-01T08:44:57;17.30;97.20
2653;DHT22;1336;48.692;9.144;2023-05-01T08:45:50;17.40;97.20
2653;DHT22;1336;48.692;9.144;2023-05-01T08:46:46;17.40;97.20
2653;DHT22;1336;48.692;9.144;2023-05-01T08:47:39;17.50;97.20
2653;DHT22;1336;48.692;9.144;2023-05-01T08:48:31;17.50;97.20
2653;DHT22;1336;48.692;9.144;2023-05-01T08:49:26;17.60;97.20
2653;DHT22;1336;48.692;9.144;2023-05-01T08:50:18;17.70;97.20
2653;DHT22;1336;48.692;9.144;2023-05-01T08:51:11;17.70;97.20
2653;DHT22;1336;48.692;9.144;2023-05-01T08:52:06;17.80;97.20
2653;DHT22;1336;48.692;9.144;2023-05-01T08:52:59;17.90;97.20
2653;DHT22;1336;48.692;9.144;2023-05-01T08:53:53;18.00;97.20
2653;DHT22;1336;48.692;9.144;2023-05-01T08:54:47;18.10;97.20
2653;DHT22;1336;48.692;9.144;2023-05-01T08:55:43;18.10;97.20
2653;DHT22;1336;48.692;9.144;2023-05-01T08:56:35;18.20;97.20
2653;DHT22;1336;48.692;9.144;2023-05-01T08:57:29;18.20;97.20
2653;DHT22;1336;48.692;9.144;2023-05-01T08:58:23;18.20;97.20
2653;DHT22;1336;48.692;9.144;2023-05-01T08:59:16;18.10;97.20
2653;DHT22;1336;48.692;9.144;2023-05-01T09:00:12;18.10;97.20
2653;DHT22;1336;48.692;9.144;2023-05-01T09:01:05;18.00;97.20
2653;DHT22;1336;48.692;9.144;2023-05-01T09:01:59;18.00;97.20
2653;DHT22;1336;48.692;9.144;2023-05-01T09:02:51;18.00;97.20
2653;DHT22;1336;48.692;9.144;2023-05-01T09:03:43;17.90;97.20
2653;DHT22;1336;48.692;9.144;2023-05-01T09:04:36;17.90;97.20
2653;DHT22;1336;48.692;9.144;2023-05-01T09:05:30;17.90;97.20
2653;DHT22;1336;48.692;9.144;2023-05-01T09:06:22;17.90;97.20
2653;DHT22;1336;48.692;9.144;2023-05-01T09:07:13;17.90;97.20
2653;DHT22;1336;48.692;9.144;2023-05-01T09:08:06;17.90;97.20
2653;DHT22;1336;48.692;9.144;2023-05-01T09:08:58;17.90;97.20
2653;DHT22;1336;48.692;9.144;2023-05-01T09:09:49;17.90;97.20
2653;DHT22;1336;48.692;9.144;2023-05-01T09:10:45;17.90;97.20
2653;DHT22;1336;48.692;9.144;2023-05-01T09:11:38;17.90;97.20
2653;DHT22;1336;48.692;9.144;2023-05-01T09:12:30;18.00;97.20
2653;DHT22;1336;48.692;9.144;2023-05-01T09:13:24;18.00;97.20
2653;DHT22;1336;48.692;9.144;2023-05-01T09:14:16;18.00;97.20
2653;DHT22;1336;48.692;9.144;2023-05-01T09:15:09;18.10;97.20
2653;DHT22;1336;48.692;9.144;2023-05-01T09:16:03;18.10;97.20
2653;DHT22;1336;48.692;9.144;2023-05-01T09:16:54;18.10;97.20
2653;DHT22;1336;48.692;9.144;2023-05-01T09:17:46;18.20;97.20
2653;DHT22;1336;48.692;9.144;2023-05-01T09:18:38;18.30;97.20
2653;DHT22;1336;48.692;9.144;2023-05-01T09:19:30;18.40;97.20
2653;DHT22;1336;48.692;9.144;2023-05-01T09:20:22;18.50;97.20
2653;DHT22;1336;48.692;9.144;2023-05-01T09:21:13;18.60;97.20
2653;DHT22;1336;48.692;9.144;2023-05-01T09:22:04;18.70;97.20
2653;DHT22;1336;48.692;9.144;2023-05-01T09:22:56;18.70;97.20
2653;DHT22;1336;48.692;9.144;2023-05-01T09:23:49;18.80;97.20
2653;DHT22;1336;48.692;9.144;2023-05-01T09:24:41;18.80;97.20
2653;DHT22;1336;48.692;9.144;2023-05-01T09:25:32;18.90;97.20
2653;DHT22;1336;48.692;9.144;2023-05-01T09:26:24;19.00;97.20
2653;DHT22;1336;48.692;9.144;2023-05-01T09:27:15;19.20;97.20
2653;DHT22;1336;48.692;9.144;2023-05-01T09:28:06;19.30;97.20
2653;DHT22;1336;48.692;9.144;2023-05-01T09:28:57;19.50;97.20
2653;DHT22;1336;48.692;9.144;2023-05-01T09:29:49;19.60;97.20
2653;DHT22;1336;48.692;9.144;2023-05-01T09:30:40;19.80;97.20
2653;DHT22;1336;48.692;9.144;2023-05-01T09:31:32;19.90;97.20
2653;DHT22;1336;48.692;9.144;2023-05-01T09:32:25;20.00;97.20
2653;DHT22;1336;48.692;9.144;2023-05-01T09:33:17;20.10;97.20
2653;DHT22;1336;48.692;9.144;2023-05-01T09:34:08;20.30;97.20
2653;DHT22;1336;48.692;9.144;2023-05-01T09:35:10;20.40;97.20
2653;DHT22;1336;48.692;9.144;2023-05-01T09:36:01;20.60;97.20
2653;DHT22;1336;48.692;9.144;2023-05-01T09:36:53;20.80;97.20
2653;DHT22;1336;48.692;9.144;2023-05-01T09:37:48;20.90;97.20
2653;DHT22;1336;48.692;9.144;2023-05-01T09:38:42;20.90;97.20
2653;DHT22;1336;48.692;9.144;2023-05-01T09:39:34;21.00;97.20
2653;DHT22;1336;48.692;9.144;2023-05-01T09:40:26;21.00;97.20
2653;DHT22;1336;48.692;9.144;2023-05-01T09:41:19;21.00;97.20
2653;DHT22;1336;48.692;9.144;2023-05-01T09:42:11;21.00;97.20
2653;DHT22;1336;48.692;9.144;2023-05-01T09:43:02;21.00;97.20
2653;DHT22;1336;48.692;9.144;2023-05-01T09:43:55;21.10;97.20
2653;DHT22;1336;48.692;9.144;2023-05-01T09:44:47;21.00;97.20
2653;DHT22;1336;48.692;9.144;2023-05-01T09:45:38;21.00;97.20
2653;DHT22;1336;48.692;9.144;2023-05-01T09:46:40;21.00;97.20
2653;DHT22;1336;48.692;9.144;2023-05-01T09:47:31;21.10;97.20
2653;DHT22;1336;48.692;9.144;2023-05-01T09:48:24;21.10;97.20
2653;DHT22;1336;48.692;9.144;2023-05-01T09:49:15;21.10;97.20
2653;DHT22;1336;48.692;9.144;2023-05-01T09:50:07;21.20;97.20
2653;DHT22;1336;48.692;9.144;2023-05-01T09:50:58;21.20;97.20
2653;DHT22;1336;48.692;9.144;2023-05-01T09:51:50;21.20;97.20
2653;DHT22;1336;48.692;9.144;2023-05-01T09:52:48;21.20;97.20
2653;DHT22;1336;48.692;9.144;2023-05-01T09:53:40;21.30;97.20
2653;DHT22;1336;48.692;9.144;2023-05-01T09:54:31;21.30;97.20
2653;DHT22;1336;48.692;9.144;2023-05-01T09:55:23;21.40;97.20
2653;DHT22;1336;48.692;9.144;2023-05-01T09:56:15;21.40;97.20
2653;DHT22;1336;48.692;9.144;2023-05-01T09:57:07;21.40;97.20
2653;DHT22;1336;48.692;9.144;2023-05-01T09:57:59;21.40;97.20
2653;DHT22;1336;48.692;9.144;2023-05-01T09:58:51;21.40;97.20
2653;DHT22;1336;48.692;9.144;2023-05-01T10:00:00;21.30;97.20
2653;DHT22;1336;48.692;9.144;2023-05-01T10:00:51;21.20;97.20
2653;DHT22;1336;48.692;9.144;2023-05-01T10:01:44;21.20;97.20
2653;DHT22;1336;48.692;9.144;2023-05-01T10:02:35;21.20;97.20
2653;DHT22;1336;48.692;9.144;2023-05-01T10:03:27;21.20;97.20
2653;DHT22;1336;48.692;9.144;2023-05-01T10:04:28;21.20;97.20
2653;DHT22;1336;48.692;9.144;2023-05-01T10:05:20;21.20;97.20
2653;DHT22;1336;48.692;9.144;2023-05-01T10:06:25;21.10;97.20
2653;DHT22;1336;48.692;9.144;2023-05-01T10:07:17;21.10;97.20
2653;DHT22;1336;48.692;9.144;2023-05-01T10:08:08;21.00;97.20
2653;DHT22;1336;48.692;9.144;2023-05-01T10:09:05;20.90;97.20
2653;DHT22;1336;48.692;9.144;2023-05-01T10:10:13;20.90;97.20
2653;DHT22;1336;48.692;9.144;2023-05-01T10:11:06;20.80;97.20
2653;DHT22;1336;48.692;9.144;2023-05-01T10:11:58;20.70;97.20
2653;DHT22;1336;48.692;9.144;2023-05-01T10:12:50;20.70;97.20
2653;DHT22;1336;48.692;9.144;2023-05-01T10:13:41;20.70;97.20
2653;DHT22;1336;48.692;9.144;2023-05-01T10:14:32;20.70;97.20
2653;DHT22;1336;48.692;9.144;2023-05-01T10:15:35;20.60;97.20
2653;DHT22;1336;48.692;9.144;2023-05-01T10:16:29;20.60;97.20
2653;DHT22;1336;48.692;9.144;2023-05-01T10:17:21;20.60;97.20
2653;DHT22;1336;48.692;9.144;2023-05-01T10:18:13;20.60;97.20
2653;DHT22;1336;48.692;9.144;2023-05-01T10:19:05;20.60;97.20
2653;DHT22;1336;48.692;9.144;2023-05-01T10:19:57;20.60;97.20
2653;DHT22;1336;48.692;9.144;2023-05-01T10:20:48;20.60;97.20
2653;DHT22;1336;48.692;9.144;2023-05-01T10:21:40;20.70;97.20
2653;DHT22;1336;48.692;9.144;2023-05-01T10:22:32;20.70;97.20
2653;DHT22;1336;48.692;9.144;2023-05-01T10:23:24;20.80;97.20
2653;DHT22;1336;48.692;9.144;2023-05-01T10:24:16;20.90;97.20
2653;DHT22;1336;48.692;9.144;2023-05-01T10:25:08;21.00;97.20
2653;DHT22;1336;48.692;9.144;2023-05-01T10:26:01;21.00;97.20
2653;DHT22;1336;48.692;9.144;2023-05-01T10:26:55;21.10;97.20
2653;DHT22;1336;48.692;9.144;2023-05-01T10:27:47;21.10;97.20
2653;DHT22;1336;48.692;9.144;2023-05-01T10:28:39;21.10;97.20
2653;DHT22;1336;48.692;9.144;2023-05-01T10:29:33;21.20;97.20
2653;DHT22;1336;48.692;9.144;2023-05-01T10:30:25;21.20;97.20
2653;DHT22;1336;48.692;9.144;2023-05-01T10:31:17;21.30;97.20
2653;DHT22;1336;48.692;9.144;2023-05-01T10:32:08;21.30;97.20
2653;DHT22;1336;48.692;9.144;2023-05-01T10:33:00;21.30;97.20
2653;DHT22;1336;48.692;9.144;2023-05-01T10:33:51;21.40;97.20
2653;DHT22;1336;48.692;9.144;2023-05-01T10:34:47;21.40;97.20
2653;DHT22;1336;48.692;9.144;2023-05-01T10:35:40;21.50;97.20
2653;DHT22;1336;48.692;9.144;2023-05-01T10:36:37;21.60;97.20
2653;DHT22;1336;48.692;9.144;2023-05-01T10:37:36;21.60;97.20
2653;DHT22;1336;48.692;9.144;2023-05-01T10:38:32;21.70;97.20
2653;DHT22;1336;48.692;9.144;2023-05-01T10:39:30;21.70;97.20
2653;DHT22;1336;48.692;9.144;2023-05-01T10:40:45;21.70;97.20